KGLR/GLR METAR and TAF weather

Enter ICAO airport designator
Station Type Date Time Source
KGLR METAR 2021/08/01 17:53 UTC NOAA

KGLR 011753Z AUTO 04008KT 10SM FEW040 SCT048 BKN070 21/09 A3003 RMK AO2 SLP166 6//// T02060094 10211 20161 51014 $


Station Type Date Time Source
KGLR Decoded METAR 2021/08/01 17:53 UTC NOAA

GAYLORD REGIONAL AIRPORT, MI, United States (KGLR) 45-01N 84-41W 407M
Aug 01, 2021 - 01:53 PM EDT / 2021.08.01 1753 UTC
Wind: from the NE (040 degrees) at 9 MPH (8 KT):0
Visibility: 10 mile(s):0
Sky conditions: mostly cloudy
Temperature: 69.1 F (20.6 C)
Dew Point: 48.9 F (9.4 C)
Relative Humidity: 48%
Pressure (altimeter): 30.03 in. Hg (1016 hPa)
Pressure tendency: 0.04 inches (1.4 hPa) higher than three hours ago
ob: KGLR 011753Z AUTO 04008KT 10SM FEW040 SCT048 BKN070 21/09 A3003 RMK AO2 SLP166 6//// T02060094 10211 20161 51014
cycle: 18

Station Type Date Time Source
KGLR TAF UTC NOAA

Error!

Example: see airport list